Terminal Aerodrome Forecast
Issued by NWS Buffalo, NY

Home | Current Version | Previous Version | Text Only | Print | Product List | Glossary On
Versions: 1 2 3 4 5 6 7 8 9 10 11 12 13 14 15 16 17 18 19 20 21 22 23 24 25 26 27 28 29 30 31 32 33
000
FTUS41 KBUF 302331
TAFROC
TAF
KROC 302331Z 0100/0124 VRB03KT P6SM BKN050
     FM010400 VRB03KT 4SM TSRA OVC035CB
     FM010700 23006KT P6SM VCSH OVC015
     FM011100 23009KT P6SM BKN025
     FM011400 23010KT 6SM -SHRA VCTS BKN020CB
     FM011700 25013KT P6SM VCSH OVC035
     FM012000 26015KT P6SM BKN050=

USA.gov is the U.S. government's official web portal to all federal, state and local government web resources and services.